GCLA/SPC METAR and TAF weather

Enter ICAO airport designator
Station Type Date Time Source
GCLA METAR 2019/04/25 22:00 UTC NOAA

GCLA 252200Z AUTO 34006KT 310V020 9999 NCD 19/12 Q1023


Station Type Date Time Source
GCLA Decoded METAR 2019/04/25 22:00 UTC NOAA

La Palma / Aeropuerto, Spain (GCLA) 28-37N 017-45W 31M
Apr 25, 2019 - 06:00 PM EDT / 2019.04.25 2200 UTC
Wind: from the NNW (340 degrees) at 7 MPH (6 KT) (direction variable):0
Visibility: greater than 7 mile(s):0
Temperature: 66 F (19 C)
Dew Point: 53 F (12 C)
Relative Humidity: 63%
Pressure (altimeter): 30.21 in. Hg (1023 hPa)
ob: GCLA 252200Z AUTO 34006KT 310V020 9999 NCD 19/12 Q1023
cycle: 22

Station Type Date Time Source
GCLA TAF 2019/04/25 21:27 UTC NOAA

TAF GCLA 252000Z 2521/2621 36009KT 9999 BKN030 TX22/2614Z TN16/2605Z PROB40
TEMPO 2603/2612 RA BKN014

Example: see airport list